sensor_id;sensor_type;location;lat;lon;timestamp;P1;durP1;ratioP1;P2;durP2;ratioP2
36593;SDS011;22603;47.900;8.146;2023-01-08T00:01:12;13.13;;;3.63;;
36593;SDS011;22603;47.900;8.146;2023-01-08T00:03:59;10.77;;;3.00;;
36593;SDS011;22603;47.900;8.146;2023-01-08T00:06:47;10.27;;;3.70;;
36593;SDS011;22603;47.900;8.146;2023-01-08T00:09:34;6.70;;;2.67;;
36593;SDS011;22603;47.900;8.146;2023-01-08T00:12:24;7.43;;;3.10;;
36593;SDS011;22603;47.900;8.146;2023-01-08T00:15:10;7.43;;;3.20;;
36593;SDS011;22603;47.900;8.146;2023-01-08T00:17:59;14.07;;;3.63;;
36593;SDS011;22603;47.900;8.146;2023-01-08T00:20:48;7.13;;;2.70;;
36593;SDS011;22603;47.900;8.146;2023-01-08T00:23:35;6.93;;;2.23;;
36593;SDS011;22603;47.900;8.146;2023-01-08T00:26:23;7.80;;;2.87;;
36593;SDS011;22603;47.900;8.146;2023-01-08T00:29:10;11.20;;;2.87;;
36593;SDS011;22603;47.900;8.146;2023-01-08T00:31:59;6.20;;;2.73;;
36593;SDS011;22603;47.900;8.146;2023-01-08T00:34:47;9.17;;;2.93;;
36593;SDS011;22603;47.900;8.146;2023-01-08T00:37:35;12.07;;;3.07;;
36593;SDS011;22603;47.900;8.146;2023-01-08T00:40:22;8.43;;;3.10;;
36593;SDS011;22603;47.900;8.146;2023-01-08T00:43:11;10.23;;;3.97;;
36593;SDS011;22603;47.900;8.146;2023-01-08T00:45:58;7.37;;;3.17;;
36593;SDS011;22603;47.900;8.146;2023-01-08T00:48:45;8.57;;;3.30;;
36593;SDS011;22603;47.900;8.146;2023-01-08T00:51:34;10.47;;;3.57;;
36593;SDS011;22603;47.900;8.146;2023-01-08T00:54:21;9.23;;;2.77;;
36593;SDS011;22603;47.900;8.146;2023-01-08T00:57:08;9.33;;;3.67;;
36593;SDS011;22603;47.900;8.146;2023-01-08T00:59:55;11.97;;;3.70;;
36593;SDS011;22603;47.900;8.146;2023-01-08T01:02:42;8.33;;;3.47;;
36593;SDS011;22603;47.900;8.146;2023-01-08T01:05:29;9.23;;;2.90;;
36593;SDS011;22603;47.900;8.146;2023-01-08T01:08:18;6.97;;;2.77;;
36593;SDS011;22603;47.900;8.146;2023-01-08T01:11:05;9.70;;;3.03;;
36593;SDS011;22603;47.900;8.146;2023-01-08T01:13:53;7.27;;;3.27;;
36593;SDS011;22603;47.900;8.146;2023-01-08T01:16:41;9.47;;;3.70;;
36593;SDS011;22603;47.900;8.146;2023-01-08T01:19:28;8.43;;;3.27;;
36593;SDS011;22603;47.900;8.146;2023-01-08T01:22:16;7.73;;;2.83;;
36593;SDS011;22603;47.900;8.146;2023-01-08T01:25:05;8.00;;;3.00;;
36593;SDS011;22603;47.900;8.146;2023-01-08T01:27:53;6.07;;;2.70;;
36593;SDS011;22603;47.900;8.146;2023-01-08T01:30:40;7.13;;;2.97;;
36593;SDS011;22603;47.900;8.146;2023-01-08T01:33:27;8.77;;;3.00;;
36593;SDS011;22603;47.900;8.146;2023-01-08T01:36:14;7.13;;;3.07;;
36593;SDS011;22603;47.900;8.146;2023-01-08T01:39:03;9.13;;;3.43;;
36593;SDS011;22603;47.900;8.146;2023-01-08T01:41:52;8.80;;;3.30;;
36593;SDS011;22603;47.900;8.146;2023-01-08T01:44:39;8.57;;;3.63;;
36593;SDS011;22603;47.900;8.146;2023-01-08T01:47:28;10.30;;;3.23;;
36593;SDS011;22603;47.900;8.146;2023-01-08T01:50:18;7.83;;;3.10;;
36593;SDS011;22603;47.900;8.146;2023-01-08T01:53:11;9.37;;;2.90;;
36593;SDS011;22603;47.900;8.146;2023-01-08T01:56:03;8.97;;;2.37;;
36593;SDS011;22603;47.900;8.146;2023-01-08T01:58:52;6.17;;;2.70;;
36593;SDS011;22603;47.900;8.146;2023-01-08T02:01:40;7.63;;;2.57;;
36593;SDS011;22603;47.900;8.146;2023-01-08T02:04:28;8.23;;;3.13;;
36593;SDS011;22603;47.900;8.146;2023-01-08T02:07:15;7.00;;;2.70;;
36593;SDS011;22603;47.900;8.146;2023-01-08T02:10:09;7.30;;;2.57;;
36593;SDS011;22603;47.900;8.146;2023-01-08T02:13:03;6.47;;;2.80;;
36593;SDS011;22603;47.900;8.146;2023-01-08T02:15:55;10.13;;;2.87;;
36593;SDS011;22603;47.900;8.146;2023-01-08T02:18:46;5.93;;;2.67;;
36593;SDS011;22603;47.900;8.146;2023-01-08T02:21:39;6.90;;;2.73;;
36593;SDS011;22603;47.900;8.146;2023-01-08T02:24:43;6.63;;;2.40;;
36593;SDS011;22603;47.900;8.146;2023-01-08T02:27:38;7.47;;;2.77;;
36593;SDS011;22603;47.900;8.146;2023-01-08T02:30:29;7.27;;;2.83;;
36593;SDS011;22603;47.900;8.146;2023-01-08T02:33:16;9.43;;;3.03;;
36593;SDS011;22603;47.900;8.146;2023-01-08T02:36:15;12.20;;;3.13;;
36593;SDS011;22603;47.900;8.146;2023-01-08T02:39:14;10.03;;;2.80;;
36593;SDS011;22603;47.900;8.146;2023-01-08T02:42:08;7.23;;;2.93;;
36593;SDS011;22603;47.900;8.146;2023-01-08T02:45:04;10.30;;;3.37;;
36593;SDS011;22603;47.900;8.146;2023-01-08T02:47:58;11.03;;;3.00;;
36593;SDS011;22603;47.900;8.146;2023-01-08T02:50:50;17.00;;;4.43;;
36593;SDS011;22603;47.900;8.146;2023-01-08T02:53:42;14.83;;;4.47;;
36593;SDS011;22603;47.900;8.146;2023-01-08T02:56:33;15.93;;;5.53;;
36593;SDS011;22603;47.900;8.146;2023-01-08T02:59:23;13.70;;;3.87;;
36593;SDS011;22603;47.900;8.146;2023-01-08T03:02:13;34.53;;;7.23;;
36593;SDS011;22603;47.900;8.146;2023-01-08T03:05:04;18.20;;;5.37;;
36593;SDS011;22603;47.900;8.146;2023-01-08T03:07:56;16.13;;;4.17;;
36593;SDS011;22603;47.900;8.146;2023-01-08T03:10:43;24.77;;;6.63;;
36593;SDS011;22603;47.900;8.146;2023-01-08T03:13:36;16.50;;;5.67;;
36593;SDS011;22603;47.900;8.146;2023-01-08T03:16:28;12.20;;;3.80;;
36593;SDS011;22603;47.900;8.146;2023-01-08T03:19:22;17.43;;;5.40;;
36593;SDS011;22603;47.900;8.146;2023-01-08T03:22:13;13.43;;;4.30;;
36593;SDS011;22603;47.900;8.146;2023-01-08T03:25:02;15.40;;;4.67;;
36593;SDS011;22603;47.900;8.146;2023-01-08T03:27:53;12.60;;;3.50;;
36593;SDS011;22603;47.900;8.146;2023-01-08T03:30:43;8.53;;;3.50;;
36593;SDS011;22603;47.900;8.146;2023-01-08T03:33:32;7.20;;;2.90;;
36593;SDS011;22603;47.900;8.146;2023-01-08T03:36:22;7.50;;;2.93;;
36593;SDS011;22603;47.900;8.146;2023-01-08T03:39:13;11.23;;;4.17;;
36593;SDS011;22603;47.900;8.146;2023-01-08T03:42:05;10.77;;;3.67;;
36593;SDS011;22603;47.900;8.146;2023-01-08T03:44:55;11.13;;;3.43;;
36593;SDS011;22603;47.900;8.146;2023-01-08T03:47:42;6.97;;;2.63;;
36593;SDS011;22603;47.900;8.146;2023-01-08T03:50:30;25.23;;;7.13;;
36593;SDS011;22603;47.900;8.146;2023-01-08T03:53:19;13.53;;;3.80;;
36593;SDS011;22603;47.900;8.146;2023-01-08T03:56:07;10.40;;;3.87;;
36593;SDS011;22603;47.900;8.146;2023-01-08T03:58:54;5.50;;;2.60;;
36593;SDS011;22603;47.900;8.146;2023-01-08T04:01:42;14.67;;;4.40;;
36593;SDS011;22603;47.900;8.146;2023-01-08T04:04:29;11.07;;;3.37;;
36593;SDS011;22603;47.900;8.146;2023-01-08T04:07:16;9.10;;;2.93;;
36593;SDS011;22603;47.900;8.146;2023-01-08T04:10:05;12.60;;;3.57;;
36593;SDS011;22603;47.900;8.146;2023-01-08T04:12:53;8.23;;;2.50;;
36593;SDS011;22603;47.900;8.146;2023-01-08T04:15:45;7.43;;;2.73;;
36593;SDS011;22603;47.900;8.146;2023-01-08T04:18:33;5.17;;;1.93;;
36593;SDS011;22603;47.900;8.146;2023-01-08T04:21:21;11.33;;;3.20;;
36593;SDS011;22603;47.900;8.146;2023-01-08T04:24:09;10.00;;;2.77;;
36593;SDS011;22603;47.900;8.146;2023-01-08T04:26:59;7.93;;;2.50;;
36593;SDS011;22603;47.900;8.146;2023-01-08T04:29:46;23.63;;;4.67;;
36593;SDS011;22603;47.900;8.146;2023-01-08T04:32:33;8.30;;;2.30;;
36593;SDS011;22603;47.900;8.146;2023-01-08T04:35:20;17.13;;;3.53;;
36593;SDS011;22603;47.900;8.146;2023-01-08T04:38:07;3.00;;;1.50;;
36593;SDS011;22603;47.900;8.146;2023-01-08T04:40:55;2.70;;;1.10;;
36593;SDS011;22603;47.900;8.146;2023-01-08T04:43:45;4.53;;;1.80;;
36593;SDS011;22603;47.900;8.146;2023-01-08T04:46:32;2.30;;;1.03;;
36593;SDS011;22603;47.900;8.146;2023-01-08T04:49:19;1.60;;;1.00;;
36593;SDS011;22603;47.900;8.146;2023-01-08T04:52:07;2.10;;;1.10;;
36593;SDS011;22603;47.900;8.146;2023-01-08T04:54:54;2.67;;;1.20;;
36593;SDS011;22603;47.900;8.146;2023-01-08T04:57:42;4.37;;;1.70;;
36593;SDS011;22603;47.900;8.146;2023-01-08T05:00:31;3.43;;;1.37;;
36593;SDS011;22603;47.900;8.146;2023-01-08T05:03:18;1.93;;;1.10;;
36593;SDS011;22603;47.900;8.146;2023-01-08T05:06:06;0.67;;;0.67;;
36593;SDS011;22603;47.900;8.146;2023-01-08T05:08:53;1.60;;;1.00;;
36593;SDS011;22603;47.900;8.146;2023-01-08T05:11:40;1.87;;;1.13;;
36593;SDS011;22603;47.900;8.146;2023-01-08T05:14:29;2.73;;;1.07;;
36593;SDS011;22603;47.900;8.146;2023-01-08T05:17:17;1.40;;;0.97;;
36593;SDS011;22603;47.900;8.146;2023-01-08T05:20:05;1.80;;;0.80;;
36593;SDS011;22603;47.900;8.146;2023-01-08T05:22:52;2.70;;;0.70;;
36593;SDS011;22603;47.900;8.146;2023-01-08T05:25:40;3.57;;;1.20;;
36593;SDS011;22603;47.900;8.146;2023-01-08T05:28:28;1.43;;;0.93;;
36593;SDS011;22603;47.900;8.146;2023-01-08T05:31:15;1.83;;;1.07;;
36593;SDS011;22603;47.900;8.146;2023-01-08T05:34:05;3.23;;;1.00;;
36593;SDS011;22603;47.900;8.146;2023-01-08T05:36:52;0.93;;;0.80;;
36593;SDS011;22603;47.900;8.146;2023-01-08T05:39:40;0.83;;;0.57;;
36593;SDS011;22603;47.900;8.146;2023-01-08T05:42:27;1.87;;;0.90;;
36593;SDS011;22603;47.900;8.146;2023-01-08T05:45:13;0.90;;;0.60;;
36593;SDS011;22603;47.900;8.146;2023-01-08T05:48:03;1.33;;;0.80;;
36593;SDS011;22603;47.900;8.146;2023-01-08T05:50:53;0.70;;;0.60;;
36593;SDS011;22603;47.900;8.146;2023-01-08T05:53:40;2.57;;;1.17;;
36593;SDS011;22603;47.900;8.146;2023-01-08T05:56:27;2.37;;;0.83;;
36593;SDS011;22603;47.900;8.146;2023-01-08T05:59:15;1.50;;;0.70;;
36593;SDS011;22603;47.900;8.146;2023-01-08T06:02:02;0.53;;;0.40;;
36593;SDS011;22603;47.900;8.146;2023-01-08T06:04:50;1.57;;;0.70;;
36593;SDS011;22603;47.900;8.146;2023-01-08T06:07:38;1.10;;;0.67;;
36593;SDS011;22603;47.900;8.146;2023-01-08T06:10:26;0.93;;;0.50;;
36593;SDS011;22603;47.900;8.146;2023-01-08T06:13:13;0.60;;;0.50;;
36593;SDS011;22603;47.900;8.146;2023-01-08T06:16:00;1.47;;;0.63;;
36593;SDS011;22603;47.900;8.146;2023-01-08T06:18:48;3.23;;;0.90;;
36593;SDS011;22603;47.900;8.146;2023-01-08T06:21:35;2.13;;;0.80;;
36593;SDS011;22603;47.900;8.146;2023-01-08T06:24:23;1.53;;;0.70;;
36593;SDS011;22603;47.900;8.146;2023-01-08T06:27:11;1.13;;;0.67;;
36593;SDS011;22603;47.900;8.146;2023-01-08T06:29:57;1.27;;;0.73;;
36593;SDS011;22603;47.900;8.146;2023-01-08T06:32:45;2.50;;;0.97;;
36593;SDS011;22603;47.900;8.146;2023-01-08T06:35:32;1.87;;;0.80;;
36593;SDS011;22603;47.900;8.146;2023-01-08T06:38:19;1.10;;;0.53;;
36593;SDS011;22603;47.900;8.146;2023-01-08T06:41:09;1.30;;;0.57;;
36593;SDS011;22603;47.900;8.146;2023-01-08T06:43:56;1.53;;;0.80;;
36593;SDS011;22603;47.900;8.146;2023-01-08T06:46:43;1.60;;;0.70;;
36593;SDS011;22603;47.900;8.146;2023-01-08T06:49:31;1.10;;;0.60;;
36593;SDS011;22603;47.900;8.146;2023-01-08T06:52:18;2.03;;;0.80;;
36593;SDS011;22603;47.900;8.146;2023-01-08T06:55:07;1.53;;;0.50;;
36593;SDS011;22603;47.900;8.146;2023-01-08T06:57:56;1.63;;;1.00;;
36593;SDS011;22603;47.900;8.146;2023-01-08T07:00:44;1.80;;;0.80;;
36593;SDS011;22603;47.900;8.146;2023-01-08T07:03:31;1.70;;;0.90;;
36593;SDS011;22603;47.900;8.146;2023-01-08T07:06:19;4.20;;;1.10;;
36593;SDS011;22603;47.900;8.146;2023-01-08T07:09:08;3.17;;;1.37;;
36593;SDS011;22603;47.900;8.146;2023-01-08T07:11:57;1.60;;;0.90;;
36593;SDS011;22603;47.900;8.146;2023-01-08T07:14:45;1.97;;;0.90;;
36593;SDS011;22603;47.900;8.146;2023-01-08T07:17:33;2.57;;;1.00;;
36593;SDS011;22603;47.900;8.146;2023-01-08T07:20:20;1.80;;;0.63;;
36593;SDS011;22603;47.900;8.146;2023-01-08T07:23:08;1.90;;;0.63;;
36593;SDS011;22603;47.900;8.146;2023-01-08T07:25:58;0.60;;;0.60;;
36593;SDS011;22603;47.900;8.146;2023-01-08T07:28:46;0.40;;;0.40;;
36593;SDS011;22603;47.900;8.146;2023-01-08T07:31:34;0.60;;;0.53;;
36593;SDS011;22603;47.900;8.146;2023-01-08T07:34:21;0.60;;;0.50;;
36593;SDS011;22603;47.900;8.146;2023-01-08T07:37:08;0.57;;;0.57;;
36593;SDS011;22603;47.900;8.146;2023-01-08T07:39:55;1.20;;;0.70;;
36593;SDS011;22603;47.900;8.146;2023-01-08T07:42:44;0.70;;;0.50;;
36593;SDS011;22603;47.900;8.146;2023-01-08T07:45:31;0.67;;;0.40;;
36593;SDS011;22603;47.900;8.146;2023-01-08T07:48:19;0.20;;;0.20;;
36593;SDS011;22603;47.900;8.146;2023-01-08T07:51:07;0.60;;;0.50;;
36593;SDS011;22603;47.900;8.146;2023-01-08T07:53:55;0.30;;;0.30;;
36593;SDS011;22603;47.900;8.146;2023-01-08T07:56:42;1.13;;;0.50;;
36593;SDS011;22603;47.900;8.146;2023-01-08T07:59:29;1.03;;;0.47;;
36593;SDS011;22603;47.900;8.146;2023-01-08T08:02:16;0.40;;;0.40;;
36593;SDS011;22603;47.900;8.146;2023-01-08T08:05:05;0.87;;;0.63;;
36593;SDS011;22603;47.900;8.146;2023-01-08T08:07:53;0.90;;;0.60;;
36593;SDS011;22603;47.900;8.146;2023-01-08T08:10:40;1.00;;;0.60;;
36593;SDS011;22603;47.900;8.146;2023-01-08T08:13:28;1.60;;;0.70;;
36593;SDS011;22603;47.900;8.146;2023-01-08T08:16:17;0.50;;;0.50;;
36593;SDS011;22603;47.900;8.146;2023-01-08T08:19:04;2.00;;;0.77;;
36593;SDS011;22603;47.900;8.146;2023-01-08T08:21:53;1.80;;;0.77;;
36593;SDS011;22603;47.900;8.146;2023-01-08T08:24:40;1.23;;;0.63;;
36593;SDS011;22603;47.900;8.146;2023-01-08T08:27:29;3.10;;;1.27;;
36593;SDS011;22603;47.900;8.146;2023-01-08T08:30:18;3.13;;;0.90;;
36593;SDS011;22603;47.900;8.146;2023-01-08T08:33:08;2.47;;;0.93;;
36593;SDS011;22603;47.900;8.146;2023-01-08T08:35:55;2.03;;;0.80;;
36593;SDS011;22603;47.900;8.146;2023-01-08T08:38:44;1.67;;;0.67;;
36593;SDS011;22603;47.900;8.146;2023-01-08T08:41:31;0.80;;;0.80;;
36593;SDS011;22603;47.900;8.146;2023-01-08T08:44:18;5.20;;;1.80;;
36593;SDS011;22603;47.900;8.146;2023-01-08T08:47:06;3.47;;;1.03;;
36593;SDS011;22603;47.900;8.146;2023-01-08T08:49:53;1.00;;;0.50;;
36593;SDS011;22603;47.900;8.146;2023-01-08T08:52:41;0.97;;;0.60;;
36593;SDS011;22603;47.900;8.146;2023-01-08T08:55:31;1.17;;;0.53;;
36593;SDS011;22603;47.900;8.146;2023-01-08T08:58:19;0.30;;;0.30;;
36593;SDS011;22603;47.900;8.146;2023-01-08T09:01:06;0.97;;;0.53;;
36593;SDS011;22603;47.900;8.146;2023-01-08T09:03:54;1.50;;;0.53;;
36593;SDS011;22603;47.900;8.146;2023-01-08T09:06:41;0.50;;;0.50;;
36593;SDS011;22603;47.900;8.146;2023-01-08T09:09:28;0.60;;;0.50;;
36593;SDS011;22603;47.900;8.146;2023-01-08T09:12:16;1.20;;;0.73;;
36593;SDS011;22603;47.900;8.146;2023-01-08T09:15:03;0.43;;;0.37;;
36593;SDS011;22603;47.900;8.146;2023-01-08T09:17:52;0.40;;;0.40;;
36593;SDS011;22603;47.900;8.146;2023-01-08T09:20:39;0.67;;;0.50;;
36593;SDS011;22603;47.900;8.146;2023-01-08T09:23:27;1.60;;;0.60;;
36593;SDS011;22603;47.900;8.146;2023-01-08T09:26:14;1.30;;;0.73;;
36593;SDS011;22603;47.900;8.146;2023-01-08T09:29:02;2.17;;;1.00;;
36593;SDS011;22603;47.900;8.146;2023-01-08T09:31:50;1.50;;;0.83;;
36593;SDS011;22603;47.900;8.146;2023-01-08T09:34:37;3.00;;;1.13;;
36593;SDS011;22603;47.900;8.146;2023-01-08T09:37:24;4.13;;;1.50;;
36593;SDS011;22603;47.900;8.146;2023-01-08T09:40:13;3.07;;;1.30;;
36593;SDS011;22603;47.900;8.146;2023-01-08T09:43:02;3.87;;;1.43;;
36593;SDS011;22603;47.900;8.146;2023-01-08T09:45:52;6.43;;;1.77;;
36593;SDS011;22603;47.900;8.146;2023-01-08T09:48:44;1.17;;;0.70;;
36593;SDS011;22603;47.900;8.146;2023-01-08T09:51:33;0.53;;;0.30;;
36593;SDS011;22603;47.900;8.146;2023-01-08T09:54:22;0.50;;;0.40;;
36593;SDS011;22603;47.900;8.146;2023-01-08T09:57:12;0.30;;;0.30;;
36593;SDS011;22603;47.900;8.146;2023-01-08T10:00:02;0.30;;;0.30;;
36593;SDS011;22603;47.900;8.146;2023-01-08T10:02:52;0.30;;;0.30;;
36593;SDS011;22603;47.900;8.146;2023-01-08T10:05:40;0.63;;;0.30;;
36593;SDS011;22603;47.900;8.146;2023-01-08T10:08:27;0.20;;;0.20;;
36593;SDS011;22603;47.900;8.146;2023-01-08T10:11:14;0.20;;;0.20;;
36593;SDS011;22603;47.900;8.146;2023-01-08T10:14:02;0.30;;;0.30;;
36593;SDS011;22603;47.900;8.146;2023-01-08T10:16:52;0.30;;;0.30;;
36593;SDS011;22603;47.900;8.146;2023-01-08T10:19:44;0.30;;;0.30;;
36593;SDS011;22603;47.900;8.146;2023-01-08T10:22:31;0.37;;;0.30;;
36593;SDS011;22603;47.900;8.146;2023-01-08T10:25:20;0.33;;;0.33;;
36593;SDS011;22603;47.900;8.146;2023-01-08T10:28:14;1.07;;;0.60;;
36593;SDS011;22603;47.900;8.146;2023-01-08T10:31:06;0.20;;;0.20;;
36593;SDS011;22603;47.900;8.146;2023-01-08T10:34:07;0.57;;;0.50;;
36593;SDS011;22603;47.900;8.146;2023-01-08T10:36:57;1.73;;;0.87;;
36593;SDS011;22603;47.900;8.146;2023-01-08T10:39:44;1.23;;;0.60;;
36593;SDS011;22603;47.900;8.146;2023-01-08T10:42:32;2.17;;;0.40;;
36593;SDS011;22603;47.900;8.146;2023-01-08T10:45:22;0.97;;;0.50;;
36593;SDS011;22603;47.900;8.146;2023-01-08T10:48:14;2.93;;;1.00;;
36593;SDS011;22603;47.900;8.146;2023-01-08T10:51:04;1.03;;;0.53;;
36593;SDS011;22603;47.900;8.146;2023-01-08T10:53:54;1.07;;;0.50;;
36593;SDS011;22603;47.900;8.146;2023-01-08T10:56:45;0.87;;;0.60;;
36593;SDS011;22603;47.900;8.146;2023-01-08T10:59:34;0.50;;;0.40;;
36593;SDS011;22603;47.900;8.146;2023-01-08T11:02:28;2.83;;;1.03;;
36593;SDS011;22603;47.900;8.146;2023-01-08T11:05:27;1.80;;;0.73;;
36593;SDS011;22603;47.900;8.146;2023-01-08T11:08:16;2.13;;;0.97;;
36593;SDS011;22603;47.900;8.146;2023-01-08T11:11:16;1.97;;;1.00;;
36593;SDS011;22603;47.900;8.146;2023-01-08T11:14:04;1.47;;;0.60;;
36593;SDS011;22603;47.900;8.146;2023-01-08T11:16:58;3.83;;;0.80;;
36593;SDS011;22603;47.900;8.146;2023-01-08T11:19:46;2.43;;;1.23;;
36593;SDS011;22603;47.900;8.146;2023-01-08T11:22:33;3.60;;;1.17;;
36593;SDS011;22603;47.900;8.146;2023-01-08T11:25:21;1.60;;;0.70;;
36593;SDS011;22603;47.900;8.146;2023-01-08T11:28:15;4.13;;;0.87;;
36593;SDS011;22603;47.900;8.146;2023-01-08T11:31:11;0.87;;;0.60;;
36593;SDS011;22603;47.900;8.146;2023-01-08T11:34:04;3.77;;;1.57;;
36593;SDS011;22603;47.900;8.146;2023-01-08T11:37:04;10.57;;;2.50;;
36593;SDS011;22603;47.900;8.146;2023-01-08T11:39:57;7.20;;;1.90;;
36593;SDS011;22603;47.900;8.146;2023-01-08T11:42:46;7.53;;;1.83;;
36593;SDS011;22603;47.900;8.146;2023-01-08T11:45:50;4.73;;;0.50;;
36593;SDS011;22603;47.900;8.146;2023-01-08T11:48:49;2.07;;;0.43;;
36593;SDS011;22603;47.900;8.146;2023-01-08T11:51:56;2.53;;;0.90;;
36593;SDS011;22603;47.900;8.146;2023-01-08T11:54:58;1.50;;;0.70;;
36593;SDS011;22603;47.900;8.146;2023-01-08T11:57:58;1.57;;;0.67;;
36593;SDS011;22603;47.900;8.146;2023-01-08T12:01:03;4.67;;;1.70;;
36593;SDS011;22603;47.900;8.146;2023-01-08T12:07:25;9.70;;;2.00;;
36593;SDS011;22603;47.900;8.146;2023-01-08T12:10:22;2.80;;;1.00;;
36593;SDS011;22603;47.900;8.146;2023-01-08T12:13:19;1.83;;;1.00;;
36593;SDS011;22603;47.900;8.146;2023-01-08T12:16:22;1.53;;;0.93;;
36593;SDS011;22603;47.900;8.146;2023-01-08T12:19:25;1.87;;;0.90;;
36593;SDS011;22603;47.900;8.146;2023-01-08T12:22:27;2.93;;;1.00;;
36593;SDS011;22603;47.900;8.146;2023-01-08T12:29:00;3.90;;;1.03;;
36593;SDS011;22603;47.900;8.146;2023-01-08T12:32:23;2.10;;;1.27;;
36593;SDS011;22603;47.900;8.146;2023-01-08T12:35:14;3.03;;;1.03;;
36593;SDS011;22603;47.900;8.146;2023-01-08T12:38:07;11.80;;;4.10;;
36593;SDS011;22603;47.900;8.146;2023-01-08T12:40:57;6.77;;;2.50;;
36593;SDS011;22603;47.900;8.146;2023-01-08T12:43:51;3.47;;;1.20;;
36593;SDS011;22603;47.900;8.146;2023-01-08T12:46:46;3.60;;;1.40;;
36593;SDS011;22603;47.900;8.146;2023-01-08T12:49:55;13.80;;;3.87;;
36593;SDS011;22603;47.900;8.146;2023-01-08T12:53:07;3.13;;;1.20;;
36593;SDS011;22603;47.900;8.146;2023-01-08T12:56:02;8.60;;;2.00;;
36593;SDS011;22603;47.900;8.146;2023-01-08T12:59:04;4.97;;;1.50;;
36593;SDS011;22603;47.900;8.146;2023-01-08T13:02:06;0.57;;;0.50;;
36593;SDS011;22603;47.900;8.146;2023-01-08T13:08:23;5.67;;;1.83;;
36593;SDS011;22603;47.900;8.146;2023-01-08T13:11:24;4.07;;;1.30;;
36593;SDS011;22603;47.900;8.146;2023-01-08T13:14:13;6.33;;;1.40;;
36593;SDS011;22603;47.900;8.146;2023-01-08T13:17:03;2.17;;;0.80;;
36593;SDS011;22603;47.900;8.146;2023-01-08T13:19:52;1.33;;;0.73;;
36593;SDS011;22603;47.900;8.146;2023-01-08T13:22:42;3.30;;;1.40;;
36593;SDS011;22603;47.900;8.146;2023-01-08T13:25:36;9.53;;;3.07;;
36593;SDS011;22603;47.900;8.146;2023-01-08T13:28:26;11.20;;;2.77;;
36593;SDS011;22603;47.900;8.146;2023-01-08T13:31:25;3.23;;;1.03;;
36593;SDS011;22603;47.900;8.146;2023-01-08T13:34:17;7.23;;;2.07;;
36593;SDS011;22603;47.900;8.146;2023-01-08T13:37:06;5.00;;;1.50;;
36593;SDS011;22603;47.900;8.146;2023-01-08T13:43:37;6.93;;;2.33;;
36593;SDS011;22603;47.900;8.146;2023-01-08T13:46:25;1.17;;;0.77;;
36593;SDS011;22603;47.900;8.146;2023-01-08T13:49:17;3.00;;;1.40;;
36593;SDS011;22603;47.900;8.146;2023-01-08T13:52:25;7.87;;;2.70;;
36593;SDS011;22603;47.900;8.146;2023-01-08T13:55:17;6.50;;;1.90;;
36593;SDS011;22603;47.900;8.146;2023-01-08T13:58:11;2.23;;;0.70;;
36593;SDS011;22603;47.900;8.146;2023-01-08T14:01:02;1.17;;;0.87;;
36593;SDS011;22603;47.900;8.146;2023-01-08T14:03:53;9.97;;;2.77;;
36593;SDS011;22603;47.900;8.146;2023-01-08T14:06:39;8.07;;;2.83;;
36593;SDS011;22603;47.900;8.146;2023-01-08T14:09:26;4.97;;;1.90;;
36593;SDS011;22603;47.900;8.146;2023-01-08T14:12:14;3.90;;;1.70;;
36593;SDS011;22603;47.900;8.146;2023-01-08T14:15:08;4.47;;;2.00;;
36593;SDS011;22603;47.900;8.146;2023-01-08T14:18:02;4.00;;;1.60;;
36593;SDS011;22603;47.900;8.146;2023-01-08T14:20:50;3.70;;;1.77;;
36593;SDS011;22603;47.900;8.146;2023-01-08T14:23:39;3.93;;;1.60;;
36593;SDS011;22603;47.900;8.146;2023-01-08T14:26:28;3.90;;;1.27;;
36593;SDS011;22603;47.900;8.146;2023-01-08T14:29:20;2.37;;;1.00;;
36593;SDS011;22603;47.900;8.146;2023-01-08T14:32:12;3.07;;;1.27;;
36593;SDS011;22603;47.900;8.146;2023-01-08T14:35:02;2.83;;;1.10;;
36593;SDS011;22603;47.900;8.146;2023-01-08T14:37:53;2.70;;;1.03;;
36593;SDS011;22603;47.900;8.146;2023-01-08T14:40:41;4.03;;;1.80;;
36593;SDS011;22603;47.900;8.146;2023-01-08T14:43:32;8.57;;;3.47;;
36593;SDS011;22603;47.900;8.146;2023-01-08T14:46:21;2.80;;;1.20;;
36593;SDS011;22603;47.900;8.146;2023-01-08T14:49:16;2.23;;;1.10;;
36593;SDS011;22603;47.900;8.146;2023-01-08T14:52:08;3.10;;;1.60;;
36593;SDS011;22603;47.900;8.146;2023-01-08T14:54:57;3.03;;;1.30;;
36593;SDS011;22603;47.900;8.146;2023-01-08T14:57:48;4.17;;;1.50;;
36593;SDS011;22603;47.900;8.146;2023-01-08T15:00:37;2.80;;;1.57;;
36593;SDS011;22603;47.900;8.146;2023-01-08T15:03:28;3.07;;;1.33;;
36593;SDS011;22603;47.900;8.146;2023-01-08T15:06:27;5.60;;;1.50;;
36593;SDS011;22603;47.900;8.146;2023-01-08T15:09:22;3.30;;;1.13;;
36593;SDS011;22603;47.900;8.146;2023-01-08T15:12:21;2.47;;;1.17;;
36593;SDS011;22603;47.900;8.146;2023-01-08T15:15:09;4.10;;;1.53;;
36593;SDS011;22603;47.900;8.146;2023-01-08T15:17:56;2.73;;;1.10;;
36593;SDS011;22603;47.900;8.146;2023-01-08T15:20:44;5.13;;;1.57;;
36593;SDS011;22603;47.900;8.146;2023-01-08T15:23:36;4.33;;;1.60;;
36593;SDS011;22603;47.900;8.146;2023-01-08T15:26:25;3.27;;;1.37;;
36593;SDS011;22603;47.900;8.146;2023-01-08T15:29:15;24.30;;;9.13;;
36593;SDS011;22603;47.900;8.146;2023-01-08T15:32:07;20.83;;;6.70;;
36593;SDS011;22603;47.900;8.146;2023-01-08T15:34:56;9.23;;;3.43;;
36593;SDS011;22603;47.900;8.146;2023-01-08T15:37:43;6.10;;;2.73;;
36593;SDS011;22603;47.900;8.146;2023-01-08T15:40:32;4.60;;;1.63;;
36593;SDS011;22603;47.900;8.146;2023-01-08T15:43:19;4.23;;;1.80;;
36593;SDS011;22603;47.900;8.146;2023-01-08T15:46:08;3.93;;;1.70;;
36593;SDS011;22603;47.900;8.146;2023-01-08T15:48:57;4.80;;;2.07;;
36593;SDS011;22603;47.900;8.146;2023-01-08T15:51:44;7.13;;;2.90;;
36593;SDS011;22603;47.900;8.146;2023-01-08T15:54:33;7.80;;;2.43;;
36593;SDS011;22603;47.900;8.146;2023-01-08T15:57:24;5.90;;;2.43;;
36593;SDS011;22603;47.900;8.146;2023-01-08T16:00:14;8.40;;;3.77;;
36593;SDS011;22603;47.900;8.146;2023-01-08T16:03:02;8.87;;;2.60;;
36593;SDS011;22603;47.900;8.146;2023-01-08T16:05:51;6.90;;;2.70;;
36593;SDS011;22603;47.900;8.146;2023-01-08T16:08:39;6.17;;;1.87;;
36593;SDS011;22603;47.900;8.146;2023-01-08T16:11:29;5.90;;;1.93;;
36593;SDS011;22603;47.900;8.146;2023-01-08T16:14:18;4.40;;;1.80;;
36593;SDS011;22603;47.900;8.146;2023-01-08T16:17:06;4.13;;;1.73;;
36593;SDS011;22603;47.900;8.146;2023-01-08T16:19:54;4.53;;;1.60;;
36593;SDS011;22603;47.900;8.146;2023-01-08T16:22:40;2.80;;;1.50;;
36593;SDS011;22603;47.900;8.146;2023-01-08T16:25:28;3.90;;;1.60;;
36593;SDS011;22603;47.900;8.146;2023-01-08T16:28:16;2.60;;;1.20;;
36593;SDS011;22603;47.900;8.146;2023-01-08T16:31:05;3.37;;;1.50;;
36593;SDS011;22603;47.900;8.146;2023-01-08T16:33:53;5.03;;;1.93;;
36593;SDS011;22603;47.900;8.146;2023-01-08T16:36:40;3.93;;;1.60;;
36593;SDS011;22603;47.900;8.146;2023-01-08T16:39:28;4.60;;;1.50;;
36593;SDS011;22603;47.900;8.146;2023-01-08T16:42:16;4.40;;;1.57;;
36593;SDS011;22603;47.900;8.146;2023-01-08T16:45:04;5.93;;;2.07;;
36593;SDS011;22603;47.900;8.146;2023-01-08T16:47:54;5.43;;;1.60;;
36593;SDS011;22603;47.900;8.146;2023-01-08T16:50:41;4.27;;;1.93;;
36593;SDS011;22603;47.900;8.146;2023-01-08T16:53:29;4.20;;;1.60;;
36593;SDS011;22603;47.900;8.146;2023-01-08T16:56:17;3.70;;;1.70;;
36593;SDS011;22603;47.900;8.146;2023-01-08T16:59:04;5.67;;;1.67;;
36593;SDS011;22603;47.900;8.146;2023-01-08T17:02:07;4.50;;;1.87;;
36593;SDS011;22603;47.900;8.146;2023-01-08T17:04:56;4.60;;;1.60;;
36593;SDS011;22603;47.900;8.146;2023-01-08T17:07:43;2.90;;;1.50;;
36593;SDS011;22603;47.900;8.146;2023-01-08T17:10:30;3.70;;;1.97;;
36593;SDS011;22603;47.900;8.146;2023-01-08T17:13:18;5.53;;;1.63;;
36593;SDS011;22603;47.900;8.146;2023-01-08T17:16:05;4.93;;;1.97;;